Dades meteomassalio
Diari Summary for Gener 23, 2018 Units:  Metric    English   Both
« Previous Day
Next Day »
Diari Semanal Mensual Anual Personalitzat
  Maxima: Minima: Mijana:
Temperatura: -17.8 °C -15.3 °C -11.6 °C
Rosada: -17.8 °C -16.9 °C -14.2 °C
Humitat: Humidity % 60 % 73 %
Velocitat del vent: 0 km/h 0 km/h 17.2 km/h
Racha vent: 0 km/h - -
Vent:- - WNW
Pressio: 0 hPa 34831.8 hPa -
Pluja: 0 mm    
Historical Graphs
 
 
Tabular Data for Gener 23, 2018
Time Temperature Dew Point Pressure Wind Wind Speed Wind Gust Humidity Rainfall Rate (Hourly) solar Conditions
-17.8 °C -17.8 °C 0 hPa Calm     Humidity % 0 mm SolarRadiationWatts/m^2 W/m2 Conditions
00:00 -10.4 °C -13.2 °C 34852.1 hPa NW 46.7 km/h 46.7 km/h 71 % 0 mm 0.0 W/m2 CLR
00:05 -10.7 °C -13.5 °C 34865.6 hPa NW 38.8 km/h 38.8 km/h 71 % 0 mm 0.0 W/m2 CLR
00:10 -10.7 °C -13.4 °C 34865.6 hPa NW 38.8 km/h 38.8 km/h 72 % 0 mm 0.0 W/m2 CLR
00:15 -10.7 °C -13.4 °C 34865.6 hPa NW 38.8 km/h 38.8 km/h 72 % 0 mm 0.0 W/m2 CLR
00:20 -10.7 °C -13.4 °C 34865.6 hPa WNW 35.7 km/h 35.7 km/h 72 % 0 mm 0.0 W/m2 CLR
00:25 -11 °C -13.7 °C 34865.6 hPa NNW 35.7 km/h 35.7 km/h 72 % 0 mm 0.0 W/m2 CLR
00:30 -11 °C -13.7 °C 34875.8 hPa NNW 20.9 km/h 20.9 km/h 72 % 0 mm 0.0 W/m2 CLR
00:35 -10.7 °C -13.4 °C 34875.8 hPa Calm     72 % 0 mm 0.0 W/m2 CLR
00:40 -11 °C -13.7 °C 34865.6 hPa WNW 23.8 km/h 23.8 km/h 72 % 0 mm 0.0 W/m2 CLR
00:45 -11 °C -13.6 °C 34865.6 hPa NW 38.8 km/h 38.8 km/h 73 % 0 mm 0.0 W/m2 CLR
00:51 -10.7 °C -13.4 °C 34865.6 hPa WNW 35.7 km/h 35.7 km/h 72 % 0 mm 0.0 W/m2 CLR
00:56 -10.7 °C -13.4 °C 34865.6 hPa NW 32.8 km/h 32.8 km/h 72 % 0 mm 0.0 W/m2 CLR
01:01 -10.7 °C -13.4 °C 34865.6 hPa NW 47.6 km/h 47.6 km/h 72 % 0 mm 0.0 W/m2 CLR
01:06 -10.7 °C -13.4 °C 34865.6 hPa NW 35.7 km/h 35.7 km/h 72 % 0 mm 0.0 W/m2 CLR
01:11 -10.7 °C -13.4 °C 34852.1 hPa NW 53.6 km/h 53.6 km/h 72 % 0 mm 0.0 W/m2 CLR
01:16 -10.7 °C -13.4 °C 34852.1 hPa NW 36.2 km/h 36.2 km/h 72 % 0 mm 0.0 W/m2 CLR
01:21 -10.7 °C -13.4 °C 34852.1 hPa WNW 35.7 km/h 35.7 km/h 72 % 0 mm 0.0 W/m2 CLR
01:26 -10.7 °C -13.3 °C 34852.1 hPa NW 29.8 km/h 29.8 km/h 73 % 0 mm 0.0 W/m2 CLR
01:31 -10.7 °C -13.3 °C 34852.1 hPa WSW 29.8 km/h 29.8 km/h 73 % 0 mm 0.0 W/m2 CLR
01:36 -10.7 °C -13.3 °C 34852.1 hPa Calm     73 % 0 mm 0.0 W/m2 CLR
01:41 -11 °C -13.6 °C 34852.1 hPa SW 3.1 km/h   73 % 0 mm 0.0 W/m2 CLR
01:46 -11 °C -13.5 °C 34852.1 hPa Calm     74 % 0 mm 0.0 W/m2 CLR
02:01 -11.3 °C -13.8 °C 34841.9 hPa WNW 26.9 km/h 26.9 km/h 74 % 0 mm 0.0 W/m2 CLR
02:06 -11.3 °C -13.9 °C 34852.1 hPa NW 32.8 km/h 32.8 km/h 73 % 0 mm 0.0 W/m2 CLR
02:11 -11.3 °C -13.9 °C 34852.1 hPa NW 18.2 km/h 18.2 km/h 73 % 0 mm 0.0 W/m2 CLR
02:16 -11.3 °C -13.9 °C 34852.1 hPa NW 26.9 km/h 26.9 km/h 73 % 0 mm 0.0 W/m2 CLR
02:21 -11.6 °C -14.2 °C 34841.9 hPa WNW 3.1 km/h 3.1 km/h 73 % 0 mm 0.0 W/m2 CLR
02:26 -11.6 °C -14.2 °C 34841.9 hPa WNW 6 km/h 6 km/h 73 % 0 mm 0.0 W/m2 CLR
02:31 -11.6 °C -14.1 °C 34841.9 hPa WNW 15 km/h 15 km/h 74 % 0 mm 0.0 W/m2 CLR
02:36 -11.6 °C -14.1 °C 34841.9 hPa West 20.9 km/h 20.9 km/h 74 % 0 mm 0.0 W/m2 CLR
02:41 -11.6 °C -14.1 °C 34841.9 hPa NW 23.8 km/h 23.8 km/h 74 % 0 mm 0.0 W/m2 CLR
02:46 -11.6 °C -14.1 °C 34841.9 hPa West 18.2 km/h 18.2 km/h 74 % 0 mm 0.0 W/m2 CLR
02:51 -11.6 °C -14.1 °C 34841.9 hPa West 20.9 km/h 20.9 km/h 74 % 0 mm 0.0 W/m2 CLR
02:56 -11.6 °C -14.1 °C 34841.9 hPa WSW 23.8 km/h 23.8 km/h 74 % 0 mm 0.0 W/m2 CLR
03:01 -11.3 °C -13.7 °C 34841.9 hPa WNW 17.9 km/h 17.9 km/h 75 % 0 mm 0.0 W/m2 CLR
03:06 -11.6 °C -14 °C 34841.9 hPa WNW 23.8 km/h 23.8 km/h 75 % 0 mm 0.0 W/m2 CLR
03:11 -11.6 °C -14 °C 34841.9 hPa WNW 26.9 km/h 26.9 km/h 75 % 0 mm 0.0 W/m2 CLR
03:16 -11.9 °C -14.3 °C 34841.9 hPa NW 20.8 km/h 20.8 km/h 75 % 0 mm 0.0 W/m2 CLR
03:21 -11.9 °C -14.3 °C 34841.9 hPa WNW 25.9 km/h 25.9 km/h 75 % 0 mm 0.0 W/m2 CLR
03:26 -11.9 °C -14.3 °C 34841.9 hPa WNW 23.8 km/h 23.8 km/h 75 % 0 mm 0.0 W/m2 CLR
03:31 -11.9 °C -14.3 °C 34841.9 hPa West 11.9 km/h 11.9 km/h 75 % 0 mm 0.0 W/m2 CLR
03:46 -12.2 °C -14.6 °C 34831.8 hPa West 9 km/h 9 km/h 75 % 0 mm 0.0 W/m2 CLR
03:51 -12.2 °C -14.5 °C 34831.8 hPa West 23.8 km/h 23.8 km/h 76 % 0 mm 0.0 W/m2 CLR
03:56 -12.2 °C -14.5 °C 34831.8 hPa WNW 26.9 km/h 26.9 km/h 76 % 0 mm 0.0 W/m2 CLR
04:01 -12.2 °C -14.6 °C 34831.8 hPa WNW 20.9 km/h 20.9 km/h 75 % 0 mm 0.0 W/m2 CLR
04:16 -11.6 °C -14 °C 34831.8 hPa WNW 35.7 km/h 35.7 km/h 75 % 0 mm 0.0 W/m2 CLR
04:21 -11.6 °C -14.1 °C 34831.8 hPa NW 23.8 km/h 23.8 km/h 74 % 0 mm 0.0 W/m2 CLR
04:26 -11.6 °C -14 °C 34841.9 hPa WNW 29.8 km/h 29.8 km/h 75 % 0 mm 0.0 W/m2 CLR
04:31 -11.6 °C -14.1 °C 34841.9 hPa WNW 17.9 km/h 17.9 km/h 74 % 0 mm 0.0 W/m2 CLR
04:36 -11.9 °C -14.4 °C 34841.9 hPa NW 26.9 km/h 26.9 km/h 74 % 0 mm 0.0 W/m2 CLR
04:41 -11.9 °C -14.3 °C 34841.9 hPa NW 23.8 km/h 23.8 km/h 75 % 0 mm 0.0 W/m2 CLR
04:51 -11.9 °C -14.3 °C 34841.9 hPa WNW 17.9 km/h 17.9 km/h 75 % 0 mm 0.0 W/m2 CLR
04:56 -12.2 °C -14.6 °C 34841.9 hPa West 15 km/h 15 km/h 75 % 0 mm 0.0 W/m2 CLR
05:01 -12.6 °C -14.8 °C 34841.9 hPa West 15 km/h 15 km/h 76 % 0 mm 0.0 W/m2 CLR
05:06 -12.8 °C -14.9 °C 34841.9 hPa West 12.9 km/h 12.9 km/h 77 % 0 mm 0.0 W/m2 CLR
05:11 -12.8 °C -14.9 °C 34841.9 hPa WNW 17.9 km/h 17.9 km/h 77 % 0 mm 0.0 W/m2 CLR
05:16 -13.2 °C -15.2 °C 34841.9 hPa WNW 18.2 km/h 18.2 km/h 77 % 0 mm 0.0 W/m2 CLR
05:21 -13.2 °C -15.2 °C 34841.9 hPa West 15.6 km/h 15.6 km/h 78 % 0 mm 0.0 W/m2 CLR
05:26 -13.2 °C -15.2 °C 34841.9 hPa West 9 km/h 9 km/h 78 % 0 mm 0.0 W/m2 CLR
05:31 -13.2 °C -15.2 °C 34841.9 hPa West 15 km/h   78 % 0 mm 0.0 W/m2 CLR
05:36 -13.2 °C -15.2 °C 34841.9 hPa West 11.9 km/h 11.9 km/h 78 % 0 mm 0.0 W/m2 CLR
05:41 -13.4 °C -15.3 °C 34841.9 hPa West 29.8 km/h 29.8 km/h 79 % 0 mm 0.0 W/m2 CLR
05:46 -13.4 °C -15.3 °C 34841.9 hPa West 9 km/h 9 km/h 79 % 0 mm 0.0 W/m2 CLR
05:51 -13.4 °C -15.4 °C 34852.1 hPa WNW 3.1 km/h   78 % 0 mm 0.0 W/m2 CLR
05:56 -13.8 °C -15.7 °C 34852.1 hPa Calm     78 % 0 mm 0.0 W/m2 CLR
06:01 -14.1 °C -15.9 °C 34852.1 hPa West 10.3 km/h 10.3 km/h 79 % 0 mm 0.0 W/m2 CLR
06:06 -14.1 °C -15.9 °C 34852.1 hPa West 6 km/h 6 km/h 79 % 0 mm 0.0 W/m2 CLR
06:11 -14.1 °C -15.9 °C 34852.1 hPa WNW 11.9 km/h 11.9 km/h 79 % 0 mm 0.0 W/m2 CLR
06:21 -14.4 °C -16.3 °C 34852.1 hPa West 6 km/h 6 km/h 78 % 0 mm 0.0 W/m2 CLR
06:26 -14.7 °C -16.6 °C 34852.1 hPa Calm     79 % 0 mm 0.0 W/m2 CLR
06:31 -14.7 °C -16.6 °C 34852.1 hPa Calm     79 % 0 mm 0.0 W/m2 CLR
06:36 -14.7 °C -16.6 °C 34852.1 hPa Calm     79 % 0 mm 0.0 W/m2 CLR
06:46 -14.7 °C -16.4 °C 34865.6 hPa Calm     80 % 0 mm 0.0 W/m2 CLR
06:51 -14.7 °C -16.3 °C 34865.6 hPa West 3.1 km/h 3.1 km/h 81 % 0 mm 0.0 W/m2 CLR
06:56 -14.7 °C -16.4 °C 34865.6 hPa Calm     80 % 0 mm 0.0 W/m2 CLR
07:01 -14.7 °C -16.4 °C 34852.1 hPa Calm     80 % 0 mm 0.0 W/m2 CLR
07:06 -14.4 °C -16.1 °C 34852.1 hPa WNW 9 km/h 9 km/h 81 % 0 mm 0.0 W/m2 CLR
07:11 -14.4 °C -16.1 °C 34852.1 hPa WNW 10.3 km/h 10.3 km/h 81 % 0 mm 0.0 W/m2 CLR
07:21 -14.4 °C -16.3 °C 34865.6 hPa WNW 6 km/h 6 km/h 78 % 0 mm 0.0 W/m2 CLR
07:26 -14.4 °C -16.3 °C 34865.6 hPa WNW 17.9 km/h 17.9 km/h 78 % 0 mm 0.0 W/m2 CLR
07:36 -14.7 °C -16.8 °C 34865.6 hPa WNW 9 km/h 9 km/h 77 % 0 mm 0.0 W/m2 CLR
07:41 -14.7 °C -16.8 °C 34865.6 hPa Calm     77 % 0 mm 0.0 W/m2 CLR
07:46 -14.7 °C -16.8 °C 34865.6 hPa Calm     77 % 0 mm 0.0 W/m2 CLR
07:51 -14.7 °C -16.7 °C 34865.6 hPa Calm   0.8 km/h 78 % 0 mm 0.0 W/m2 CLR
08:07 -14.7 °C -16.6 °C 34865.6 hPa West 3.1 km/h   79 % 0 mm 0.0 W/m2 CLR
08:17 -15 °C -16.8 °C 34865.6 hPa West 15 km/h 15 km/h 80 % 0 mm 7.0 W/m2 OVC
08:22 -15 °C -16.8 °C 34865.6 hPa WNW 9 km/h 9 km/h 79 % 0 mm 11.0 W/m2 BKN
08:27 -15 °C -16.8 °C 34865.6 hPa Calm     79 % 0 mm 14.0 W/m2 BKN
08:32 -15 °C -16.9 °C 34875.8 hPa Calm     78 % 0 mm 19.0 W/m2 BKN
08:37 -15 °C -16.8 °C 34875.8 hPa Calm     79 % 0 mm 25.0 W/m2 BKN
08:38 -15 °C -16.8 °C 34875.8 hPa Calm     79 % 0 mm 28.0 W/m2 BKN
08:43 -14.7 °C -16.3 °C 34875.8 hPa West 9 km/h 9 km/h 81 % 0 mm 37.0 W/m2 BKN
08:48 -14.7 °C -16.3 °C 34875.8 hPa WNW 17.9 km/h 17.9 km/h 82 % 0 mm 51.0 W/m2 SCT
08:53 -14.4 °C -16.1 °C 34875.8 hPa West 11.9 km/h 11.9 km/h 81 % 0 mm 70.0 W/m2 FEW
08:58 -14.1 °C -15.9 °C 34875.8 hPa Calm     80 % 0 mm 76.0 W/m2 FEW
09:08 -13.8 °C -15.7 °C 34875.8 hPa West 11.9 km/h 11.9 km/h 79 % 0 mm 93.0 W/m2 CLR
09:13 -13.8 °C -15.7 °C 34875.8 hPa WNW 11.9 km/h 11.9 km/h 78 % 0 mm 105.0 W/m2 CLR
09:18 -13.4 °C -15.6 °C 34875.8 hPa West 20.9 km/h 20.9 km/h 77 % 0 mm 104.0 W/m2 CLR
09:23 -13.2 °C -15.4 °C 34889.3 hPa West 17.9 km/h 17.9 km/h 76 % 0 mm 118.0 W/m2 CLR
09:28 -12.8 °C -15.2 °C 34889.3 hPa WNW 23.8 km/h 23.8 km/h 75 % 0 mm 127.0 W/m2 CLR
09:33 -12.6 °C -14.9 °C 34889.3 hPa WNW 23.8 km/h 23.8 km/h 75 % 0 mm 135.0 W/m2 CLR
09:39 -11.9 °C -14.5 °C 34889.3 hPa West 20.9 km/h 20.9 km/h 73 % 0 mm 144.0 W/m2 CLR
09:44 -11.3 °C -13.9 °C 34889.3 hPa West 26.9 km/h 26.9 km/h 73 % 0 mm 141.0 W/m2 CLR
09:49 -11 °C -13.6 °C 34899.5 hPa WNW 23.8 km/h 23.8 km/h 73 % 0 mm 163.0 W/m2 CLR
09:54 -10.7 °C -13.4 °C 34889.3 hPa NNW 15 km/h 15 km/h 72 % 0 mm 204.0 W/m2 CLR
09:59 -10.4 °C -13.2 °C 34899.5 hPa WNW 23.8 km/h 23.8 km/h 71 % 0 mm 167.0 W/m2 CLR
10:05 -10.4 °C -13.3 °C 34899.5 hPa NW 17.9 km/h 17.9 km/h 70 % 0 mm 158.0 W/m2 CLR
10:10 -10.1 °C -13.2 °C 34899.5 hPa WNW 33.6 km/h 33.6 km/h 69 % 0 mm 156.0 W/m2 CLR
10:15 -10.1 °C -13.2 °C 34899.5 hPa WNW 47.6 km/h 47.6 km/h 69 % 0 mm 186.0 W/m2 CLR
10:20 -10.1 °C -13.2 °C 34899.5 hPa West 23.8 km/h 23.8 km/h 69 % 0 mm 160.0 W/m2 CLR
10:25 -10.1 °C -13.2 °C 34909.7 hPa NW 17.9 km/h 17.9 km/h 69 % 0 mm 155.0 W/m2 CLR
10:40 -10.1 °C -13.3 °C 34909.7 hPa WNW 35.7 km/h 35.7 km/h 68 % 0 mm 163.0 W/m2 CLR
10:45 -10.1 °C -13.3 °C 34909.7 hPa West 23.8 km/h 23.8 km/h 68 % 0 mm 165.0 W/m2 CLR
10:50 -9.8 °C -13 °C 34909.7 hPa WNW 29.8 km/h 29.8 km/h 68 % 0 mm 165.0 W/m2 CLR
10:55 -9.8 °C -13 °C 34909.7 hPa WNW 35.7 km/h 35.7 km/h 68 % 0 mm 165.0 W/m2 CLR
11:00 -9.8 °C -13 °C 34909.7 hPa West 11.9 km/h 11.9 km/h 68 % 0 mm 167.0 W/m2 CLR
11:05 -9.8 °C -13.1 °C 34909.7 hPa NW 29.8 km/h 29.8 km/h 67 % 0 mm 183.0 W/m2 CLR
11:10 -9.8 °C -13.1 °C 34923.2 hPa West 38.8 km/h 38.8 km/h 67 % 0 mm 165.0 W/m2 CLR
11:15 -9.8 °C -13.1 °C 34923.2 hPa WNW 35.7 km/h 35.7 km/h 67 % 0 mm 165.0 W/m2 CLR
11:20 -9.8 °C -13 °C 34923.2 hPa NW 35.7 km/h 35.7 km/h 68 % 0 mm 144.0 W/m2 CLR
11:25 -9.8 °C -13 °C 34909.7 hPa NW 29.8 km/h 29.8 km/h 68 % 0 mm 151.0 W/m2 CLR
11:30 -9.8 °C -13 °C 34923.2 hPa NW 28.5 km/h 28.5 km/h 68 % 0 mm 216.0 W/m2 CLR
11:35 -9.4 °C -12.7 °C 34909.7 hPa WNW 32.8 km/h 32.8 km/h 68 % 0 mm 227.0 W/m2 CLR
11:40 -9.4 °C -12.8 °C 34909.7 hPa WNW 29.8 km/h 29.8 km/h 67 % 0 mm 171.0 W/m2 CLR
11:45 -9.4 °C -12.8 °C 34909.7 hPa NW 41.7 km/h 41.7 km/h 67 % 0 mm 251.0 W/m2 CLR
11:50 -9.4 °C -12.8 °C 34909.7 hPa WNW 35.7 km/h 35.7 km/h 67 % 0 mm 216.0 W/m2 CLR
11:55 -9.4 °C -12.8 °C 34909.7 hPa NW 29.8 km/h 29.8 km/h 67 % 0 mm 241.0 W/m2 CLR
12:05 -9.1 °C -12.6 °C 34909.7 hPa NW 23.3 km/h 23.3 km/h 67 % 0 mm 278.0 W/m2 CLR
12:20 -9.1 °C -12.8 °C 34909.7 hPa WNW 36.2 km/h 36.2 km/h 65 % 0 mm 343.0 W/m2 CLR
12:25 -9.1 °C -12.7 °C 34899.5 hPa NNW 29.8 km/h 29.8 km/h 66 % 0 mm 339.0 W/m2 CLR
12:40 -9.1 °C -12.8 °C 34899.5 hPa North 50.7 km/h 50.7 km/h 65 % 0 mm 246.0 W/m2 CLR
12:45 -9.1 °C -12.7 °C 34899.5 hPa NW 26.9 km/h 26.9 km/h 66 % 0 mm 246.0 W/m2 CLR
12:50 -9.1 °C -12.8 °C 34889.3 hPa NNW 50.7 km/h 50.7 km/h 65 % 0 mm 346.0 W/m2 CLR
12:55 -8.8 °C -12.5 °C 34889.3 hPa NNW 35.7 km/h 35.7 km/h 65 % 0 mm 418.0 W/m2 CLR
13:00 -8.8 °C -12.5 °C 34889.3 hPa NNW 49.2 km/h 49.2 km/h 65 % 0 mm 279.0 W/m2 CLR
13:05 -8.8 °C -12.5 °C 34889.3 hPa North 35.7 km/h 35.7 km/h 65 % 0 mm 346.0 W/m2 CLR
13:10 -8.5 °C -12.3 °C 34889.3 hPa North 44.7 km/h 44.7 km/h 64 % 0 mm 628.0 W/m2 CLR
13:15 -8.2 °C -12.2 °C 34875.8 hPa NNW 50.7 km/h 50.7 km/h 63 % 0 mm 271.0 W/m2 CLR
13:20 -8.5 °C -12.4 °C 34875.8 hPa North 44.7 km/h 44.7 km/h 63 % 0 mm 285.0 W/m2 CLR
13:25 -8.8 °C -12.6 °C 34875.8 hPa North 41.7 km/h 41.7 km/h 64 % 0 mm 587.0 W/m2 CLR
13:30 -8.5 °C -12.3 °C 34875.8 hPa North 44.7 km/h 44.7 km/h 64 % 0 mm 278.0 W/m2 CLR
13:35 -8.2 °C -12.1 °C 34875.8 hPa NNW 35.7 km/h 35.7 km/h 64 % 0 mm 390.0 W/m2 CLR
13:40 -8.5 °C -12.3 °C 34865.6 hPa NW 25.9 km/h 25.9 km/h 64 % 0 mm 613.0 W/m2 CLR
13:45 -8.2 °C -12.2 °C 34865.6 hPa North 35.7 km/h 35.7 km/h 63 % 0 mm 582.0 W/m2 CLR
13:55 -7.9 °C -12.1 °C 34852.1 hPa North 41.7 km/h 41.7 km/h 61 % 0 mm 524.0 W/m2 CLR
14:10 -7.9 °C -12 °C 34852.1 hPa North 44.7 km/h 44.7 km/h 62 % 0 mm 517.0 W/m2 CLR
14:15 -8.2 °C -12.4 °C 34852.1 hPa NNE 35.7 km/h 35.7 km/h 61 % 0 mm 492.0 W/m2 CLR
14:20 -7.9 °C -12.1 °C 34852.1 hPa NNW 38.8 km/h 38.8 km/h 61 % 0 mm 478.0 W/m2 CLR
14:30 -8.2 °C -12.6 °C 34841.9 hPa North 44.7 km/h 44.7 km/h 60 % 0 mm 343.0 W/m2 CLR
14:35 -8.2 °C -12.3 °C 34841.9 hPa North 44.7 km/h 44.7 km/h 62 % 0 mm 355.0 W/m2 CLR
14:40 -8.2 °C -12.3 °C 34841.9 hPa NNE 33.6 km/h 33.6 km/h 62 % 0 mm 343.0 W/m2 CLR
14:45 -8.2 °C -12.3 °C 34841.9 hPa NW 23.8 km/h 23.8 km/h 62 % 0 mm 330.0 W/m2 CLR
14:50 -8.2 °C -12.3 °C 34841.9 hPa North 41.7 km/h 41.7 km/h 62 % 0 mm 323.0 W/m2 CLR
14:55 -8.5 °C -12.7 °C 34841.9 hPa North 41.7 km/h 41.7 km/h 61 % 0 mm 323.0 W/m2 CLR
15:00 -8.5 °C -12.4 °C 34841.9 hPa North 36.2 km/h 36.2 km/h 63 % 0 mm 309.0 W/m2 CLR
15:05 -8.2 °C -12.2 °C 34841.9 hPa NNW 35.7 km/h 35.7 km/h 63 % 0 mm 327.0 W/m2 CLR
15:10 -8.2 °C -12.3 °C 34841.9 hPa NW 23.8 km/h 23.8 km/h 62 % 0 mm 330.0 W/m2 CLR
15:15 -8.2 °C -12.3 °C 34841.9 hPa NNW 32.8 km/h 32.8 km/h 62 % 0 mm 325.0 W/m2 CLR
15:20 -8.2 °C -12.2 °C 34831.8 hPa NNW 23.8 km/h 23.8 km/h 63 % 0 mm 274.0 W/m2 CLR
15:25 -8.2 °C -12.3 °C 34841.9 hPa NNW 29.8 km/h 29.8 km/h 62 % 0 mm 241.0 W/m2 CLR
15:30 -8.2 °C -12.3 °C 34831.8 hPa NW 35.7 km/h 35.7 km/h 62 % 0 mm 378.0 W/m2 CLR
15:35 -7.9 °C -12 °C 34831.8 hPa NNW 26.9 km/h 26.9 km/h 62 % 0 mm 401.0 W/m2 CLR
15:40 -7.9 °C -12.3 °C 34831.8 hPa NW 38.8 km/h 38.8 km/h 60 % 0 mm 330.0 W/m2 CLR
15:45 -7.9 °C -12.1 °C 34841.9 hPa NNW 32.8 km/h 32.8 km/h 61 % 0 mm 352.0 W/m2 CLR
15:50 -7.9 °C -12.3 °C 34841.9 hPa North 33.6 km/h 33.6 km/h 60 % 0 mm 283.0 W/m2 CLR
15:55 -7.9 °C -12.3 °C 34841.9 hPa NW 20.9 km/h 20.9 km/h 60 % 0 mm 297.0 W/m2 CLR
16:05 -8.2 °C -12.6 °C 34841.9 hPa NW 26.9 km/h 26.9 km/h 60 % 0 mm 213.0 W/m2 CLR
16:07 -8.2 °C -12.6 °C 34841.9 hPa North 32.8 km/h 32.8 km/h 60 % 0 mm 221.0 W/m2 CLR
16:12 -8.2 °C -12.6 °C 34841.9 hPa NW 32.8 km/h 32.8 km/h 60 % 0 mm 216.0 W/m2 CLR
16:17 -8.2 °C -12.4 °C 34841.9 hPa NNW 35.7 km/h 35.7 km/h 61 % 0 mm 137.0 W/m2 CLR
16:27 -8.5 °C -12.6 °C 34841.9 hPa NNW 17.9 km/h 17.9 km/h 62 % 0 mm 169.0 W/m2 CLR
16:32 -8.5 °C -12.7 °C 34841.9 hPa NNW 29.8 km/h 29.8 km/h 61 % 0 mm 134.0 W/m2 CLR
16:37 -8.5 °C -12.7 °C 34841.9 hPa NW 29.8 km/h 29.8 km/h 61 % 0 mm 128.0 W/m2 CLR
16:42 -8.5 °C -12.6 °C 34841.9 hPa NNW 20.9 km/h 20.9 km/h 62 % 0 mm 127.0 W/m2 CLR
16:47 -8.8 °C -13 °C 34841.9 hPa NNW 26.9 km/h 26.9 km/h 61 % 0 mm 114.0 W/m2 CLR
16:52 -8.8 °C -12.9 °C 34841.9 hPa NW 6 km/h   62 % 0 mm 105.0 W/m2 CLR
16:57 -8.8 °C -12.9 °C 34841.9 hPa Calm     62 % 0 mm 116.0 W/m2 CLR
17:02 -8.8 °C -13 °C 34841.9 hPa NW 3.1 km/h 3.1 km/h 61 % 0 mm 83.0 W/m2 CLR
17:07 -8.8 °C -12.9 °C 34841.9 hPa NNW 3.1 km/h 3.1 km/h 62 % 0 mm 98.0 W/m2 CLR
17:12 -8.8 °C -12.9 °C 34841.9 hPa NNW 20.9 km/h 20.9 km/h 62 % 0 mm 51.0 W/m2 SCT
17:17 -9.1 °C -13 °C 34841.9 hPa North 6 km/h 6 km/h 63 % 0 mm 60.0 W/m2 SCT
17:22 -9.1 °C -13 °C 34841.9 hPa NNW 23.8 km/h 23.8 km/h 63 % 0 mm 49.0 W/m2 SCT
17:33 -9.4 °C -13.2 °C 34852.1 hPa NNW 3.1 km/h 3.1 km/h 64 % 0 mm 32.0 W/m2 BKN
17:38 -9.4 °C -13.2 °C 34852.1 hPa Calm     64 % 0 mm 25.0 W/m2 BKN
17:43 -9.4 °C -13.1 °C 34852.1 hPa Calm     65 % 0 mm 18.0 W/m2 BKN
17:53 -10.1 °C -13.6 °C 34852.1 hPa Calm     66 % 0 mm 7.0 W/m2 BKN
17:58 -10.4 °C -13.7 °C 34852.1 hPa Calm     67 % 0 mm 5.0 W/m2 OVC
18:03 -10.7 °C -14 °C 34852.1 hPa Calm     67 % 0 mm 0.0 W/m2 OVC
18:13 -11 °C -14.2 °C 34865.6 hPa Calm     68 % 0 mm 0.0 W/m2 OVC
18:18 -11.3 °C -14.3 °C 34865.6 hPa Calm     69 % 0 mm 0.0 W/m2 CLR
18:23 -11.6 °C -14.6 °C 34865.6 hPa Calm     70 % 0 mm 0.0 W/m2 CLR
18:28 -11.6 °C -14.6 °C 34865.6 hPa Calm     70 % 0 mm 0.0 W/m2 CLR
18:33 -11.6 °C -14.4 °C 34865.6 hPa Calm     71 % 0 mm 0.0 W/m2 CLR
18:38 -11.6 °C -14.2 °C 34875.8 hPa Calm     73 % 0 mm 0.0 W/m2 CLR
18:43 -11.6 °C -14.2 °C 34875.8 hPa Calm     73 % 0 mm 0.0 W/m2 CLR
18:53 -11.9 °C -14.4 °C 34889.3 hPa Calm     74 % 0 mm 0.0 W/m2 CLR
18:58 -11.9 °C -14.4 °C 34889.3 hPa Calm     74 % 0 mm 0.0 W/m2 CLR
19:03 -11.9 °C -14.3 °C 34889.3 hPa Calm     75 % 0 mm 0.0 W/m2 CLR
19:08 -12.2 °C -14.6 °C 34889.3 hPa Calm     75 % 0 mm 0.0 W/m2 CLR
19:13 -12.2 °C -14.5 °C 34889.3 hPa Calm     76 % 0 mm 0.0 W/m2 CLR
19:18 -12.2 °C -14.5 °C 34889.3 hPa Calm     76 % 0 mm 0.0 W/m2 CLR
19:28 -12.6 °C -14.7 °C 34889.3 hPa Calm     77 % 0 mm 0.0 W/m2 CLR
19:33 -12.6 °C -14.6 °C 34889.3 hPa Calm     78 % 0 mm 0.0 W/m2 CLR
19:38 -12.6 °C -14.4 °C 34899.5 hPa Calm     79 % 0 mm 0.0 W/m2 CLR
19:43 -12.6 °C -14.3 °C 34899.5 hPa Calm     81 % 0 mm 0.0 W/m2 CLR
19:53 -12.8 °C -14.7 °C 34899.5 hPa Calm     80 % 0 mm 0.0 W/m2 CLR
19:58 -13.2 °C -14.9 °C 34899.5 hPa Calm     80 % 0 mm 0.0 W/m2 CLR
20:03 -13.2 °C -14.8 °C 34899.5 hPa Calm     81 % 0 mm 0.0 W/m2 CLR
20:08 -13.2 °C -14.8 °C 34899.5 hPa Calm     81 % 0 mm 0.0 W/m2 CLR
20:23 -13.4 °C -15.1 °C 34909.7 hPa Calm     82 % 0 mm 0.0 W/m2 CLR
20:34 -13.8 °C -15.3 °C 34909.7 hPa Calm     83 % 0 mm 0.0 W/m2 CLR
20:39 -13.8 °C -15.2 °C 34909.7 hPa Calm     84 % 0 mm 0.0 W/m2 CLR
20:49 -13.4 °C -14.9 °C 34909.7 hPa Calm     84 % 0 mm 0.0 W/m2 CLR
20:54 -13.4 °C -14.9 °C 34909.7 hPa Calm     84 % 0 mm 0.0 W/m2 CLR
20:59 -13.8 °C -15.2 °C 34909.7 hPa Calm     84 % 0 mm 0.0 W/m2 CLR
21:04 -14.1 °C -15.4 °C 34909.7 hPa Calm     85 % 0 mm 0.0 W/m2 CLR
21:09 -14.1 °C -15.4 °C 34909.7 hPa Calm     85 % 0 mm 0.0 W/m2 CLR
21:14 -14.1 °C -15.3 °C 34909.7 hPa Calm     86 % 0 mm 0.0 W/m2 CLR
21:19 -14.1 °C -15.3 °C 34909.7 hPa Calm     86 % 0 mm 0.0 W/m2 CLR
21:24 -14.1 °C -15.3 °C 34909.7 hPa Calm     86 % 0 mm 0.0 W/m2 CLR
21:29 -14.1 °C -15.3 °C 34909.7 hPa Calm     86 % 0 mm 0.0 W/m2 CLR
21:34 -14.1 °C -15.3 °C 34909.7 hPa Calm     86 % 0 mm 0.0 W/m2 CLR
21:39 -14.4 °C -15.6 °C 34909.7 hPa Calm     86 % 0 mm 0.0 W/m2 CLR
21:54 -14.4 °C -15.5 °C 34923.2 hPa Calm     87 % 0 mm 0.0 W/m2 CLR
21:59 -14.4 °C -15.5 °C 34923.2 hPa Calm     87 % 0 mm 0.0 W/m2 CLR
22:04 -14.4 °C -15.5 °C 34923.2 hPa Calm     87 % 0 mm 0.0 W/m2 CLR
22:09 -14.4 °C -15.5 °C 34923.2 hPa Calm     87 % 0 mm 0.0 W/m2 CLR
22:14 -14.7 °C -15.8 °C 34923.2 hPa Calm     87 % 0 mm 0.0 W/m2 CLR
22:19 -14.4 °C -15.5 °C 34923.2 hPa Calm     87 % 0 mm 0.0 W/m2 CLR
22:24 -14.4 °C -15.4 °C 34923.2 hPa Calm     88 % 0 mm 0.0 W/m2 CLR
22:29 -14.4 °C -15.4 °C 34923.2 hPa Calm     88 % 0 mm 0.0 W/m2 CLR
22:39 -14.7 °C -15.7 °C 34923.2 hPa Calm     88 % 0 mm 0.0 W/m2 CLR
22:44 -14.7 °C -15.7 °C 34923.2 hPa Calm     88 % 0 mm 0.0 W/m2 CLR
22:49 -14.7 °C -15.7 °C 34923.2 hPa Calm     88 % 0 mm 0.0 W/m2 CLR
23:05 -15 °C -15.9 °C 34923.2 hPa Calm     89 % 0 mm 0.0 W/m2 CLR
23:10 -15 °C -15.9 °C 34923.2 hPa Calm     89 % 0 mm 0.0 W/m2 CLR
23:12 -15 °C -15.9 °C 34933.4 hPa Calm     89 % 0 mm 0.0 W/m2 CLR
23:17 -15 °C -15.9 °C 34923.2 hPa Calm     89 % 0 mm 0.0 W/m2 CLR
23:22 -15 °C -15.9 °C 34933.4 hPa Calm     89 % 0 mm 0.0 W/m2 CLR
23:27 -15 °C -15.9 °C 34933.4 hPa Calm     89 % 0 mm 0.0 W/m2 CLR
23:32 -15 °C -15.9 °C 34933.4 hPa Calm     89 % 0 mm 0.0 W/m2 CLR
23:37 -15.3 °C -16.2 °C 34933.4 hPa Calm     89 % 0 mm 0.0 W/m2 CLR
23:42 -15.3 °C -16.2 °C 34933.4 hPa Calm     90 % 0 mm 0.0 W/m2 CLR
23:47 -15.3 °C -16.2 °C 34933.4 hPa Calm     89 % 0 mm 0.0 W/m2 CLR
23:52 -15.3 °C -16.2 °C 34933.4 hPa Calm     90 % 0 mm 0.0 W/m2 CLR
23:57 -15.3 °C -16.2 °C 34933.4 hPa Calm     90 % 0 mm 0.0 W/m2 CLR
Lo Temps de Massalio
Compliments of Weather Underground - 1 mb